createdAt,value
2022-12-23T00:04:07.119Z,99004.95
2022-12-23T00:09:10.191Z,99008.81
2022-12-23T00:14:32.140Z,99017.75
2022-12-23T00:19:35.241Z,99024.19
2022-12-23T00:24:38.302Z,99027.98
2022-12-23T00:29:41.349Z,99029.27
2022-12-23T00:34:44.456Z,99035.71
2022-12-23T00:40:07.070Z,99032.64
2022-12-23T00:45:16.256Z,99031.98
2022-12-23T00:50:19.784Z,99037.73
2022-12-23T00:55:23.412Z,99044.55
2022-12-23T01:00:45.297Z,99047.57
2022-12-23T01:05:48.658Z,99049.59
2022-12-23T01:10:51.761Z,99049.91
2022-12-23T01:15:59.883Z,99046.82
2022-12-23T01:21:06.985Z,99044.10
2022-12-23T01:26:11.216Z,99045.77
2022-12-23T01:31:14.477Z,99049.23
2022-12-23T01:36:17.738Z,99049.51
2022-12-23T01:41:42.139Z,99056.23
2022-12-23T01:46:45.349Z,99061.90
2022-12-23T01:51:48.483Z,99071.67
2022-12-23T01:56:51.970Z,99075.99
2022-12-23T02:02:13.863Z,99073.59
2022-12-23T02:07:36.992Z,99076.93
2022-12-23T02:13:06.728Z,99077.71
2022-12-23T02:18:28.668Z,99077.13
2022-12-23T02:23:31.777Z,99071.98
2022-12-23T02:28:34.876Z,99069.23
2022-12-23T02:33:37.982Z,99073.68
2022-12-23T02:38:41.024Z,99079.34
2022-12-23T02:43:47.274Z,99076.89
2022-12-23T02:48:50.167Z,99082.27
2022-12-23T02:53:55.936Z,99081.03
2022-12-23T02:59:04.468Z,99082.30
2022-12-23T03:04:07.632Z,99088.07
2022-12-23T03:09:16.520Z,99093.17
2022-12-23T03:14:19.413Z,99085.66
2022-12-23T03:19:30.918Z,99080.69
2022-12-23T03:24:37.923Z,99077.79
2022-12-23T03:29:49.751Z,99080.62
2022-12-23T03:34:54.982Z,99079.75
2022-12-23T03:40:05.408Z,99084.71
2022-12-23T03:50:39.521Z,99087.02
2022-12-23T03:55:50.821Z,99085.35
2022-12-23T04:01:11.386Z,99087.80
2022-12-23T04:06:16.287Z,99090.85
2022-12-23T04:11:19.796Z,99091.85
2022-12-23T04:16:23.348Z,99089.95
2022-12-23T04:21:27.339Z,99084.55
2022-12-23T04:26:30.961Z,99082.83
2022-12-23T04:31:34.345Z,99083.95
2022-12-23T04:36:37.683Z,99083.94
2022-12-23T04:41:40.797Z,99088.08
2022-12-23T04:46:44.360Z,99092.31
2022-12-23T04:51:47.727Z,99094.29
2022-12-23T04:56:51.023Z,99101.63
2022-12-23T05:01:54.231Z,99100.04
2022-12-23T05:07:00.208Z,99101.42
2022-12-23T05:12:03.323Z,99093.70
2022-12-23T05:17:07.888Z,99090.30
2022-12-23T05:22:11.467Z,99089.01
2022-12-23T05:27:14.988Z,99093.79
2022-12-23T05:32:18.362Z,99099.94
2022-12-23T05:37:21.604Z,99104.75
2022-12-23T05:42:24.811Z,99108.80
2022-12-23T05:47:27.917Z,99105.95
2022-12-23T05:52:31.034Z,99099.90
2022-12-23T05:57:34.243Z,99098.12
2022-12-23T06:02:37.497Z,99103.39
2022-12-23T06:07:41.190Z,99114.52
2022-12-23T06:12:44.263Z,99113.96
2022-12-23T06:17:47.634Z,99117.48
2022-12-23T06:22:50.685Z,99122.36
2022-12-23T06:27:54.297Z,99131.70
2022-12-23T06:32:57.407Z,99131.77
2022-12-23T06:38:00.719Z,99141.94
2022-12-23T06:43:03.822Z,99148.08
2022-12-23T06:48:07.536Z,99140.40
2022-12-23T06:53:10.647Z,99145.20
2022-12-23T06:58:13.772Z,99153.49
2022-12-23T07:03:17.021Z,99151.41
2022-12-23T07:08:20.368Z,99152.71
2022-12-23T07:13:23.594Z,99155.25
2022-12-23T07:18:26.787Z,99157.19
2022-12-23T07:23:29.891Z,99155.04
2022-12-23T07:28:33.708Z,99152.86
2022-12-23T07:33:37.143Z,99152.21
2022-12-23T07:38:40.438Z,99155.56
2022-12-23T07:43:43.947Z,99152.77
2022-12-23T07:48:47.271Z,99157.81
2022-12-23T07:53:50.981Z,99162.80
2022-12-23T07:58:54.396Z,99170.80
2022-12-23T08:03:58.049Z,99167.78
2022-12-23T08:09:01.218Z,99161.17
2022-12-23T08:14:04.322Z,99159.76
2022-12-23T08:19:07.536Z,99153.85
2022-12-23T08:24:10.839Z,99154.08
2022-12-23T08:29:13.965Z,99149.04
2022-12-23T08:34:17.608Z,99156.75
2022-12-23T08:39:20.664Z,99164.58
2022-12-23T08:44:27.218Z,99162.14
2022-12-23T08:49:30.360Z,99168.40
2022-12-23T08:54:33.672Z,99170.66
2022-12-23T08:59:36.876Z,99170.77
2022-12-23T09:04:40.398Z,99164.70
2022-12-23T09:09:43.703Z,99165.89
2022-12-23T09:14:50.309Z,99166.52
2022-12-23T09:19:53.580Z,99166.59
2022-12-23T09:25:01.287Z,99166.22
2022-12-23T09:30:11.824Z,99164.98
2022-12-23T09:35:17.219Z,99163.07
2022-12-23T09:40:23.280Z,99153.30
2022-12-23T09:45:27.050Z,99152.52
2022-12-23T09:50:33.356Z,99156.85
2022-12-23T09:55:40.732Z,99158.80
2022-12-23T10:00:55.727Z,99152.61
2022-12-23T10:06:03.847Z,99150.63
2022-12-23T10:11:28.353Z,99147.51
2022-12-23T10:16:39.258Z,99139.98
2022-12-23T10:21:47.658Z,99135.25
2022-12-23T10:26:51.603Z,99131.15
2022-12-23T10:31:54.855Z,99125.04
2022-12-23T10:36:58.009Z,99121.35
2022-12-23T10:42:07.053Z,99114.97
2022-12-23T10:47:16.421Z,99112.89
2022-12-23T10:52:21.491Z,99114.35
2022-12-23T10:57:26.472Z,99105.99
2022-12-23T11:02:35.855Z,99102.14
2022-12-23T11:07:45.167Z,99096.52
2022-12-23T11:12:51.526Z,99094.72
2022-12-23T11:17:59.519Z,99092.70
2022-12-23T11:23:04.466Z,99082.38
2022-12-23T11:28:14.054Z,99070.84
2022-12-23T11:33:28.602Z,99067.59
2022-12-23T11:38:32.520Z,99068.28
2022-12-23T11:43:36.034Z,99069.14
2022-12-23T11:48:40.066Z,99063.41
2022-12-23T11:53:43.679Z,99060.63
2022-12-23T11:58:49.041Z,99070.27
2022-12-23T12:04:03.560Z,99079.06
2022-12-23T12:09:07.441Z,99079.27
2022-12-23T12:14:19.450Z,99087.96
2022-12-23T12:19:32.197Z,99097.06
2022-12-23T12:24:52.901Z,99093.84
2022-12-23T12:29:59.457Z,99091.02
2022-12-23T12:35:15.801Z,99089.65
2022-12-23T12:40:30.310Z,99089.80
2022-12-23T12:45:46.324Z,99091.99
2022-12-23T12:50:58.713Z,99095.34
2022-12-23T12:56:09.281Z,99088.92
2022-12-23T13:01:18.625Z,99088.22
2022-12-23T13:06:29.632Z,99091.79
2022-12-23T13:11:36.013Z,99094.73
2022-12-23T13:16:54.836Z,99099.27
2022-12-23T13:21:58.298Z,99100.58
2022-12-23T13:27:04.272Z,99101.31
2022-12-23T13:32:31.342Z,99101.88
2022-12-23T13:37:46.533Z,99096.55
2022-12-23T13:42:52.919Z,99092.98
2022-12-23T13:48:02.679Z,99097.21
2022-12-23T13:53:16.456Z,99091.82
2022-12-23T13:58:22.411Z,99093.52
2022-12-23T14:03:26.440Z,99093.20
2022-12-23T14:08:33.859Z,99095.77
2022-12-23T14:13:41.364Z,99092.11
2022-12-23T14:18:50.903Z,99092.01
2022-12-23T14:24:14.498Z,99088.55
2022-12-23T14:29:36.949Z,99090.82
2022-12-23T14:35:00.021Z,99097.98
2022-12-23T14:40:25.242Z,99092.80
2022-12-23T14:45:34.408Z,99089.81
2022-12-23T14:50:37.553Z,99101.27
2022-12-23T14:55:41.736Z,99100.73
2022-12-23T15:00:52.952Z,99108.70
2022-12-23T15:05:58.079Z,99113.70
2022-12-23T15:11:02.122Z,99110.20
2022-12-23T15:16:06.090Z,99121.18
2022-12-23T15:21:13.755Z,99125.84
2022-12-23T15:26:18.497Z,99123.18
2022-12-23T15:31:24.994Z,99119.12
2022-12-23T15:36:35.895Z,99121.11
2022-12-23T15:41:44.293Z,99125.02
2022-12-23T15:46:48.148Z,99133.89
2022-12-23T15:52:13.967Z,99144.02
2022-12-23T15:57:19.727Z,99148.33
2022-12-23T16:02:59.590Z,99143.27
2022-12-23T16:08:09.254Z,99139.81
2022-12-23T16:13:17.466Z,99140.15
2022-12-23T16:18:31.881Z,99148.28
2022-12-23T16:23:36.946Z,99153.70
2022-12-23T16:28:41.676Z,99150.41
2022-12-23T16:33:46.077Z,99147.69
2022-12-23T16:38:50.313Z,99148.27
2022-12-23T16:43:53.723Z,99146.35
2022-12-23T16:48:58.890Z,99150.40
2022-12-23T16:54:02.412Z,99152.52
2022-12-23T16:59:05.707Z,99156.13
2022-12-23T17:04:09.241Z,99164.88
2022-12-23T17:09:12.840Z,99164.02
2022-12-23T17:14:16.556Z,99166.30
2022-12-23T17:19:27.396Z,99156.93
2022-12-23T17:24:31.774Z,99166.00
2022-12-23T17:29:34.888Z,99170.61
2022-12-23T17:34:38.095Z,99172.13
2022-12-23T17:39:42.223Z,99171.52
2022-12-23T17:44:45.844Z,99175.52
2022-12-23T17:49:49.571Z,99172.70
2022-12-23T17:54:53.092Z,99162.52
2022-12-23T17:59:57.408Z,99152.81
2022-12-23T18:05:01.148Z,99153.66
2022-12-23T18:10:05.976Z,99154.61
2022-12-23T18:15:21.610Z,99164.98
2022-12-23T18:20:27.552Z,99174.73
2022-12-23T18:25:31.481Z,99175.52
2022-12-23T18:30:36.194Z,99174.57
2022-12-23T18:35:44.300Z,99184.67
2022-12-23T18:40:50.212Z,99181.70
2022-12-23T18:45:54.208Z,99180.27
2022-12-23T18:50:57.858Z,99184.69
2022-12-23T18:56:01.892Z,99195.63
2022-12-23T19:01:05.968Z,99198.59
2022-12-23T19:06:11.655Z,99198.84
2022-12-23T19:11:16.954Z,99199.23
2022-12-23T19:16:21.917Z,99207.92
2022-12-23T19:21:25.194Z,99219.13
2022-12-23T19:26:28.923Z,99228.08
2022-12-23T19:31:34.369Z,99231.25
2022-12-23T19:36:39.072Z,99230.36
2022-12-23T19:41:42.635Z,99241.36
2022-12-23T19:46:45.688Z,99245.90
2022-12-23T19:51:49.497Z,99245.56
2022-12-23T19:56:53.187Z,99240.26
2022-12-23T20:01:57.296Z,99239.55
2022-12-23T20:07:00.928Z,99242.17
2022-12-23T20:12:04.961Z,99242.97
2022-12-23T20:17:08.674Z,99238.96
2022-12-23T20:22:12.601Z,99238.45
2022-12-23T20:27:17.014Z,99240.89
2022-12-23T20:32:21.472Z,99246.86
2022-12-23T20:37:24.895Z,99250.92
2022-12-23T20:42:28.317Z,99258.02
2022-12-23T20:47:31.308Z,99261.02
2022-12-23T20:52:34.823Z,99265.88
2022-12-23T20:57:38.439Z,99265.94
2022-12-23T21:02:41.781Z,99266.52
2022-12-23T21:07:44.966Z,99272.92
2022-12-23T21:12:48.076Z,99279.69
2022-12-23T21:17:51.779Z,99288.40
2022-12-23T21:22:55.298Z,99291.65
2022-12-23T21:27:58.510Z,99294.21
2022-12-23T21:33:04.048Z,99297.39
2022-12-23T21:38:07.278Z,99307.14
2022-12-23T21:43:10.690Z,99303.23
2022-12-23T21:48:13.900Z,99308.61
2022-12-23T21:53:17.116Z,99319.48
2022-12-23T21:58:20.318Z,99314.27
2022-12-23T22:03:23.834Z,99313.20
2022-12-23T22:08:26.940Z,99323.64
2022-12-23T22:13:30.147Z,99323.33
2022-12-23T22:18:33.767Z,99326.45
2022-12-23T22:23:37.895Z,99329.55
2022-12-23T22:28:41.509Z,99330.88
2022-12-23T22:33:44.926Z,99340.91
2022-12-23T22:38:55.195Z,99345.70
2022-12-23T22:43:59.355Z,99349.76
2022-12-23T22:49:02.549Z,99349.06
2022-12-23T22:54:05.751Z,99354.37
2022-12-23T22:59:18.164Z,99347.92
2022-12-23T23:04:21.173Z,99342.73
2022-12-23T23:09:24.283Z,99346.54
2022-12-23T23:14:27.379Z,99350.21
2022-12-23T23:19:30.791Z,99351.04
2022-12-23T23:24:34.515Z,99352.77
2022-12-23T23:29:37.755Z,99356.73
2022-12-23T23:34:42.366Z,99367.13
2022-12-23T23:39:45.366Z,99367.93
2022-12-23T23:44:48.371Z,99366.18
2022-12-23T23:49:51.476Z,99365.79
2022-12-23T23:54:54.683Z,99370.73
2022-12-23T23:59:57.890Z,99371.56
